McLeod, ND (58057)

7:17 AM CDT on May 28, 2015 (GMT -0500)
Hellendale Township | | Change Station
CLOSE
Current Station
Personal Weather Station
Location: Leonard, ND
Elevation: 1066 ft
Nearby Weather Stations

Elev 1066 ft 46.58 °N, 97.24 °W | Updated 44 seconds ago

Rain
Rain
61.1 °F
Feels Like 61.1 °F
N
1.0
Wind Variable Wind from ESE
Gusts 1.0 mph

Today
High -- | Low -- °F
--% Chance of Precip.
Yesterday
High -- | Low -- °F
Precip. -- in
5:42 AM 9:10 PM
Waxing Gibbous, 75% visible
Pressure 29.97 in
Visibility 10.0 miles
Clouds Overcast 10000 ft
Dew Point 58 °F
Humidity 89%
Rainfall 0.38 in
Snow Depth Not available.
UV 0 out of 12
Pollen 6.10 out of 12
Air Quality Not available.
Flu Activity Sporadic
METAR KBWP 281150Z AUTO 30006KT 10SM OVC100 17/12 A2997 RMK AO1

More Conditions Fewer Conditions

Pressure 29.97 in
Visibility 10.0 miles
Clouds Overcast 10000 ft
Dew Point 58 °F
Humidity 89%
Rainfall 0.38 in
Snow Depth Not available.
UV 0 out of 12
Pollen 6.10 out of 12
Air Quality Not available.
Flu Activity Sporadic
METAR KBWP 281150Z AUTO 30006KT 10SM OVC100 17/12 A2997 RMK AO1

More Conditions Fewer Conditions

10-Day Weather Forecast

Almanac

Astronomy

May. 28, 2015 Rise Set
Actual Time
Civil Twilight
Nautical Twilight
Astronomical Twilight
Moon
Length of Visible Light
Length of Day
Tomorrow will be .
, % of the Moon is Illuminated

Today's Extremes

State Highs State Lows

Community

WunderPhotos

Upload Photos

1,824,961 photos uploaded!

WunderBlogs® & News

Nearby

Air Quality

  Air Quality AQ Index Pollutant
Not available.

Snow Depth

Station Depth Elevation

Earthquake Activity

City Distance Mag. Time & Date
Minimum magnitude displayed is 2.5.

Coastal Water Temperatures

Place Temperature

Stations

Nearby Weather Stations

Station Location Temp. Windchill Dew Point Humidity Wind Precip. Elev Updated Type